sensor_id;sensor_type;location;lat;lon;timestamp;P1;durP1;ratioP1;P2;durP2;ratioP2
3321;SDS011;1673;51.388;7.086;2023-05-23T00:02:02;17.10;;;10.90;;
3321;SDS011;1673;51.388;7.086;2023-05-23T00:04:34;16.70;;;10.40;;
3321;SDS011;1673;51.388;7.086;2023-05-23T00:07:04;14.82;;;10.18;;
3321;SDS011;1673;51.388;7.086;2023-05-23T00:09:34;17.20;;;10.20;;
3321;SDS011;1673;51.388;7.086;2023-05-23T00:12:04;17.10;;;10.32;;
3321;SDS011;1673;51.388;7.086;2023-05-23T00:14:34;18.65;;;10.27;;
3321;SDS011;1673;51.388;7.086;2023-05-23T00:17:08;12.90;;;9.07;;
3321;SDS011;1673;51.388;7.086;2023-05-23T00:19:38;13.10;;;8.38;;
3321;SDS011;1673;51.388;7.086;2023-05-23T00:22:11;14.82;;;8.60;;
3321;SDS011;1673;51.388;7.086;2023-05-23T00:24:42;15.07;;;8.10;;
3321;SDS011;1673;51.388;7.086;2023-05-23T00:27:12;12.65;;;8.10;;
3321;SDS011;1673;51.388;7.086;2023-05-23T00:29:42;12.85;;;8.30;;
3321;SDS011;1673;51.388;7.086;2023-05-23T00:32:15;11.57;;;7.75;;
3321;SDS011;1673;51.388;7.086;2023-05-23T00:34:44;12.40;;;7.95;;
3321;SDS011;1673;51.388;7.086;2023-05-23T00:37:14;12.82;;;6.90;;
3321;SDS011;1673;51.388;7.086;2023-05-23T00:39:44;12.70;;;7.30;;
3321;SDS011;1673;51.388;7.086;2023-05-23T00:42:13;11.30;;;6.47;;
3321;SDS011;1673;51.388;7.086;2023-05-23T00:44:43;9.35;;;6.45;;
3321;SDS011;1673;51.388;7.086;2023-05-23T00:47:16;10.30;;;6.15;;
3321;SDS011;1673;51.388;7.086;2023-05-23T00:49:46;8.65;;;5.72;;
3321;SDS011;1673;51.388;7.086;2023-05-23T00:52:16;8.97;;;4.90;;
3321;SDS011;1673;51.388;7.086;2023-05-23T00:54:45;8.25;;;5.68;;
3321;SDS011;1673;51.388;7.086;2023-05-23T00:57:15;9.60;;;5.60;;
3321;SDS011;1673;51.388;7.086;2023-05-23T00:59:45;9.05;;;5.68;;
3321;SDS011;1673;51.388;7.086;2023-05-23T01:02:19;9.00;;;5.13;;
3321;SDS011;1673;51.388;7.086;2023-05-23T01:04:49;9.37;;;5.57;;
3321;SDS011;1673;51.388;7.086;2023-05-23T01:07:20;8.05;;;5.78;;
3321;SDS011;1673;51.388;7.086;2023-05-23T01:09:50;10.23;;;5.60;;
3321;SDS011;1673;51.388;7.086;2023-05-23T01:12:23;8.40;;;5.83;;
3321;SDS011;1673;51.388;7.086;2023-05-23T01:14:58;9.85;;;5.68;;
3321;SDS011;1673;51.388;7.086;2023-05-23T01:17:40;8.68;;;5.93;;
3321;SDS011;1673;51.388;7.086;2023-05-23T01:20:15;8.50;;;5.30;;
3321;SDS011;1673;51.388;7.086;2023-05-23T01:23:04;10.40;;;6.03;;
3321;SDS011;1673;51.388;7.086;2023-05-23T01:25:46;8.45;;;4.95;;
3321;SDS011;1673;51.388;7.086;2023-05-23T01:28:28;9.82;;;5.60;;
3321;SDS011;1673;51.388;7.086;2023-05-23T01:31:01;7.43;;;5.30;;
3321;SDS011;1673;51.388;7.086;2023-05-23T01:33:32;9.45;;;5.28;;
3321;SDS011;1673;51.388;7.086;2023-05-23T01:36:03;10.23;;;5.60;;
3321;SDS011;1673;51.388;7.086;2023-05-23T01:38:34;9.37;;;5.60;;
3321;SDS011;1673;51.388;7.086;2023-05-23T01:41:04;8.27;;;5.50;;
3321;SDS011;1673;51.388;7.086;2023-05-23T01:43:36;9.70;;;6.05;;
3321;SDS011;1673;51.388;7.086;2023-05-23T01:46:07;10.02;;;4.85;;
3321;SDS011;1673;51.388;7.086;2023-05-23T01:48:37;10.70;;;5.60;;
3321;SDS011;1673;51.388;7.086;2023-05-23T01:51:08;9.85;;;5.35;;
3321;SDS011;1673;51.388;7.086;2023-05-23T01:53:38;10.77;;;5.90;;
3321;SDS011;1673;51.388;7.086;2023-05-23T01:56:08;8.20;;;5.40;;
3321;SDS011;1673;51.388;7.086;2023-05-23T01:58:41;7.80;;;5.22;;
3321;SDS011;1673;51.388;7.086;2023-05-23T02:01:11;8.30;;;5.40;;
3321;SDS011;1673;51.388;7.086;2023-05-23T02:03:41;9.70;;;5.30;;
3321;SDS011;1673;51.388;7.086;2023-05-23T02:06:11;10.52;;;5.00;;
3321;SDS011;1673;51.388;7.086;2023-05-23T02:08:41;9.20;;;5.50;;
3321;SDS011;1673;51.388;7.086;2023-05-23T02:11:17;8.38;;;5.80;;
3321;SDS011;1673;51.388;7.086;2023-05-23T02:13:51;10.23;;;5.95;;
3321;SDS011;1673;51.388;7.086;2023-05-23T02:16:21;9.95;;;6.68;;
3321;SDS011;1673;51.388;7.086;2023-05-23T02:18:51;14.07;;;7.00;;
3321;SDS011;1673;51.388;7.086;2023-05-23T02:21:22;11.02;;;6.80;;
3321;SDS011;1673;51.388;7.086;2023-05-23T02:23:52;9.37;;;6.40;;
3321;SDS011;1673;51.388;7.086;2023-05-23T02:26:22;14.02;;;7.00;;
3321;SDS011;1673;51.388;7.086;2023-05-23T02:28:55;15.55;;;7.30;;
3321;SDS011;1673;51.388;7.086;2023-05-23T02:31:25;13.57;;;7.30;;
3321;SDS011;1673;51.388;7.086;2023-05-23T02:33:56;11.70;;;7.70;;
3321;SDS011;1673;51.388;7.086;2023-05-23T02:36:26;11.73;;;7.40;;
3321;SDS011;1673;51.388;7.086;2023-05-23T02:38:59;10.88;;;7.13;;
3321;SDS011;1673;51.388;7.086;2023-05-23T02:41:29;13.57;;;8.23;;
3321;SDS011;1673;51.388;7.086;2023-05-23T02:44:01;12.40;;;8.20;;
3321;SDS011;1673;51.388;7.086;2023-05-23T02:46:31;14.00;;;7.78;;
3321;SDS011;1673;51.388;7.086;2023-05-23T02:49:02;13.27;;;7.90;;
3321;SDS011;1673;51.388;7.086;2023-05-23T02:51:32;12.97;;;8.57;;
3321;SDS011;1673;51.388;7.086;2023-05-23T02:54:02;13.02;;;7.30;;
3321;SDS011;1673;51.388;7.086;2023-05-23T02:56:35;15.15;;;8.05;;
3321;SDS011;1673;51.388;7.086;2023-05-23T02:59:07;12.68;;;8.20;;
3321;SDS011;1673;51.388;7.086;2023-05-23T03:01:37;13.40;;;7.70;;
3321;SDS011;1673;51.388;7.086;2023-05-23T03:04:07;13.82;;;7.57;;
3321;SDS011;1673;51.388;7.086;2023-05-23T03:06:39;13.60;;;7.32;;
3321;SDS011;1673;51.388;7.086;2023-05-23T03:09:10;15.90;;;7.80;;
3321;SDS011;1673;51.388;7.086;2023-05-23T03:11:40;13.63;;;6.32;;
3321;SDS011;1673;51.388;7.086;2023-05-23T03:14:12;13.30;;;7.63;;
3321;SDS011;1673;51.388;7.086;2023-05-23T03:16:42;16.13;;;7.22;;
3321;SDS011;1673;51.388;7.086;2023-05-23T03:19:12;13.15;;;6.75;;
3321;SDS011;1673;51.388;7.086;2023-05-23T03:21:43;10.18;;;6.38;;
3321;SDS011;1673;51.388;7.086;2023-05-23T03:24:13;15.43;;;6.50;;
3321;SDS011;1673;51.388;7.086;2023-05-23T03:26:43;10.27;;;5.30;;
3321;SDS011;1673;51.388;7.086;2023-05-23T03:29:15;9.80;;;5.27;;
3321;SDS011;1673;51.388;7.086;2023-05-23T03:31:45;9.02;;;5.63;;
3321;SDS011;1673;51.388;7.086;2023-05-23T03:34:15;10.07;;;5.40;;
3321;SDS011;1673;51.388;7.086;2023-05-23T03:36:45;10.88;;;5.88;;
3321;SDS011;1673;51.388;7.086;2023-05-23T03:39:15;9.82;;;5.75;;
3321;SDS011;1673;51.388;7.086;2023-05-23T03:41:44;10.63;;;5.20;;
3321;SDS011;1673;51.388;7.086;2023-05-23T03:44:17;10.73;;;5.70;;
3321;SDS011;1673;51.388;7.086;2023-05-23T03:46:47;13.23;;;5.20;;
3321;SDS011;1673;51.388;7.086;2023-05-23T03:49:19;13.03;;;6.07;;
3321;SDS011;1673;51.388;7.086;2023-05-23T03:51:49;13.48;;;6.60;;
3321;SDS011;1673;51.388;7.086;2023-05-23T03:54:19;12.55;;;7.00;;
3321;SDS011;1673;51.388;7.086;2023-05-23T03:56:50;11.48;;;6.90;;
3321;SDS011;1673;51.388;7.086;2023-05-23T03:59:23;13.40;;;7.60;;
3321;SDS011;1673;51.388;7.086;2023-05-23T04:01:53;14.10;;;7.38;;
3321;SDS011;1673;51.388;7.086;2023-05-23T04:04:24;13.98;;;7.80;;
3321;SDS011;1673;51.388;7.086;2023-05-23T04:06:54;16.00;;;8.70;;
3321;SDS011;1673;51.388;7.086;2023-05-23T04:09:24;19.20;;;9.68;;
3321;SDS011;1673;51.388;7.086;2023-05-23T04:11:54;14.60;;;8.98;;
3321;SDS011;1673;51.388;7.086;2023-05-23T04:14:27;16.02;;;8.85;;
3321;SDS011;1673;51.388;7.086;2023-05-23T04:16:59;19.42;;;12.38;;
3321;SDS011;1673;51.388;7.086;2023-05-23T04:19:29;18.77;;;10.75;;
3321;SDS011;1673;51.388;7.086;2023-05-23T04:21:59;17.67;;;11.07;;
3321;SDS011;1673;51.388;7.086;2023-05-23T04:24:29;19.48;;;11.13;;
3321;SDS011;1673;51.388;7.086;2023-05-23T04:26:59;14.50;;;9.23;;
3321;SDS011;1673;51.388;7.086;2023-05-23T04:29:31;15.88;;;8.65;;
3321;SDS011;1673;51.388;7.086;2023-05-23T04:32:02;16.60;;;8.67;;
3321;SDS011;1673;51.388;7.086;2023-05-23T04:34:32;20.27;;;8.88;;
3321;SDS011;1673;51.388;7.086;2023-05-23T04:37:04;19.80;;;9.70;;
3321;SDS011;1673;51.388;7.086;2023-05-23T04:39:35;15.83;;;8.80;;
3321;SDS011;1673;51.388;7.086;2023-05-23T04:42:33;19.17;;;8.65;;
3321;SDS011;1673;51.388;7.086;2023-05-23T04:45:32;20.90;;;9.07;;
3321;SDS011;1673;51.388;7.086;2023-05-23T04:48:13;18.65;;;9.70;;
3321;SDS011;1673;51.388;7.086;2023-05-23T04:50:44;17.60;;;9.37;;
3321;SDS011;1673;51.388;7.086;2023-05-23T04:53:16;22.33;;;8.63;;
3321;SDS011;1673;51.388;7.086;2023-05-23T04:55:47;19.52;;;9.90;;
3321;SDS011;1673;51.388;7.086;2023-05-23T04:58:17;18.88;;;8.93;;
3321;SDS011;1673;51.388;7.086;2023-05-23T05:00:50;16.67;;;8.68;;
3321;SDS011;1673;51.388;7.086;2023-05-23T05:03:20;15.23;;;8.52;;
3321;SDS011;1673;51.388;7.086;2023-05-23T05:05:52;17.25;;;8.85;;
3321;SDS011;1673;51.388;7.086;2023-05-23T05:08:22;20.50;;;10.00;;
3321;SDS011;1673;51.388;7.086;2023-05-23T05:10:52;16.70;;;9.55;;
3321;SDS011;1673;51.388;7.086;2023-05-23T05:13:23;22.20;;;8.93;;
3321;SDS011;1673;51.388;7.086;2023-05-23T05:15:57;17.52;;;9.02;;
3321;SDS011;1673;51.388;7.086;2023-05-23T05:18:27;17.58;;;8.90;;
3321;SDS011;1673;51.388;7.086;2023-05-23T05:20:57;21.58;;;10.48;;
3321;SDS011;1673;51.388;7.086;2023-05-23T05:23:29;19.63;;;10.13;;
3321;SDS011;1673;51.388;7.086;2023-05-23T05:25:59;18.48;;;9.02;;
3321;SDS011;1673;51.388;7.086;2023-05-23T05:28:30;17.13;;;8.83;;
3321;SDS011;1673;51.388;7.086;2023-05-23T05:31:03;17.92;;;9.57;;
3321;SDS011;1673;51.388;7.086;2023-05-23T05:33:34;19.88;;;11.50;;
3321;SDS011;1673;51.388;7.086;2023-05-23T05:36:10;22.90;;;12.30;;
3321;SDS011;1673;51.388;7.086;2023-05-23T05:38:40;23.65;;;12.68;;
3321;SDS011;1673;51.388;7.086;2023-05-23T05:41:10;19.40;;;12.10;;
3321;SDS011;1673;51.388;7.086;2023-05-23T05:43:46;23.02;;;11.13;;
3321;SDS011;1673;51.388;7.086;2023-05-23T05:46:19;20.20;;;11.30;;
3321;SDS011;1673;51.388;7.086;2023-05-23T05:48:50;21.75;;;10.20;;
3321;SDS011;1673;51.388;7.086;2023-05-23T05:51:20;21.53;;;10.13;;
3321;SDS011;1673;51.388;7.086;2023-05-23T05:53:50;19.85;;;10.23;;
3321;SDS011;1673;51.388;7.086;2023-05-23T05:56:21;21.87;;;11.80;;
3321;SDS011;1673;51.388;7.086;2023-05-23T05:58:52;25.73;;;12.57;;
3321;SDS011;1673;51.388;7.086;2023-05-23T06:01:25;25.87;;;11.50;;
3321;SDS011;1673;51.388;7.086;2023-05-23T06:03:56;19.52;;;11.18;;
3321;SDS011;1673;51.388;7.086;2023-05-23T06:06:27;25.63;;;12.73;;
3321;SDS011;1673;51.388;7.086;2023-05-23T06:08:57;24.20;;;12.50;;
3321;SDS011;1673;51.388;7.086;2023-05-23T06:11:28;19.77;;;11.73;;
3321;SDS011;1673;51.388;7.086;2023-05-23T06:13:58;24.70;;;10.90;;
3321;SDS011;1673;51.388;7.086;2023-05-23T06:16:30;19.33;;;10.82;;
3321;SDS011;1673;51.388;7.086;2023-05-23T06:19:00;20.27;;;11.45;;
3321;SDS011;1673;51.388;7.086;2023-05-23T06:21:30;18.70;;;10.75;;
3321;SDS011;1673;51.388;7.086;2023-05-23T06:24:03;19.63;;;11.33;;
3321;SDS011;1673;51.388;7.086;2023-05-23T06:26:33;22.80;;;11.90;;
3321;SDS011;1673;51.388;7.086;2023-05-23T06:29:04;19.45;;;11.10;;
3321;SDS011;1673;51.388;7.086;2023-05-23T06:31:37;24.33;;;11.32;;
3321;SDS011;1673;51.388;7.086;2023-05-23T06:34:06;20.38;;;11.30;;
3321;SDS011;1673;51.388;7.086;2023-05-23T06:36:37;21.10;;;11.90;;
3321;SDS011;1673;51.388;7.086;2023-05-23T06:39:08;20.92;;;10.50;;
3321;SDS011;1673;51.388;7.086;2023-05-23T06:41:38;20.58;;;10.90;;
3321;SDS011;1673;51.388;7.086;2023-05-23T06:44:07;24.23;;;11.63;;
3321;SDS011;1673;51.388;7.086;2023-05-23T06:46:42;18.08;;;9.88;;
3321;SDS011;1673;51.388;7.086;2023-05-23T06:49:15;20.63;;;10.63;;
3321;SDS011;1673;51.388;7.086;2023-05-23T06:51:45;16.00;;;10.00;;
3321;SDS011;1673;51.388;7.086;2023-05-23T06:54:16;17.80;;;9.65;;
3321;SDS011;1673;51.388;7.086;2023-05-23T06:56:46;19.48;;;9.30;;
3321;SDS011;1673;51.388;7.086;2023-05-23T06:59:15;25.38;;;10.20;;
3321;SDS011;1673;51.388;7.086;2023-05-23T07:01:48;17.13;;;10.93;;
3321;SDS011;1673;51.388;7.086;2023-05-23T07:04:18;14.73;;;9.17;;
3321;SDS011;1673;51.388;7.086;2023-05-23T07:06:48;14.17;;;9.53;;
3321;SDS011;1673;51.388;7.086;2023-05-23T07:09:18;18.92;;;10.30;;
3321;SDS011;1673;51.388;7.086;2023-05-23T07:11:49;15.80;;;10.07;;
3321;SDS011;1673;51.388;7.086;2023-05-23T07:14:19;15.57;;;10.02;;
3321;SDS011;1673;51.388;7.086;2023-05-23T07:16:52;15.53;;;8.83;;
3321;SDS011;1673;51.388;7.086;2023-05-23T07:19:22;17.67;;;10.40;;
3321;SDS011;1673;51.388;7.086;2023-05-23T07:21:52;19.17;;;11.70;;
3321;SDS011;1673;51.388;7.086;2023-05-23T07:24:21;19.15;;;11.65;;
3321;SDS011;1673;51.388;7.086;2023-05-23T07:26:54;21.38;;;10.75;;
3321;SDS011;1673;51.388;7.086;2023-05-23T07:29:25;21.25;;;11.30;;
3321;SDS011;1673;51.388;7.086;2023-05-23T07:31:57;19.80;;;11.38;;
3321;SDS011;1673;51.388;7.086;2023-05-23T07:34:28;22.27;;;10.63;;
3321;SDS011;1673;51.388;7.086;2023-05-23T07:37:00;21.00;;;11.60;;
3321;SDS011;1673;51.388;7.086;2023-05-23T07:39:37;22.37;;;13.10;;
3321;SDS011;1673;51.388;7.086;2023-05-23T07:42:07;24.30;;;13.38;;
3321;SDS011;1673;51.388;7.086;2023-05-23T07:44:36;27.03;;;13.90;;
3321;SDS011;1673;51.388;7.086;2023-05-23T07:47:10;21.15;;;12.80;;
3321;SDS011;1673;51.388;7.086;2023-05-23T07:49:40;24.88;;;13.07;;
3321;SDS011;1673;51.388;7.086;2023-05-23T07:52:10;21.80;;;11.98;;
3321;SDS011;1673;51.388;7.086;2023-05-23T07:54:40;22.65;;;11.10;;
3321;SDS011;1673;51.388;7.086;2023-05-23T07:57:11;22.55;;;11.20;;
3321;SDS011;1673;51.388;7.086;2023-05-23T07:59:42;17.83;;;9.90;;
3321;SDS011;1673;51.388;7.086;2023-05-23T08:02:15;18.47;;;9.80;;
3321;SDS011;1673;51.388;7.086;2023-05-23T08:04:45;20.88;;;9.45;;
3321;SDS011;1673;51.388;7.086;2023-05-23T08:07:17;19.42;;;9.30;;
3321;SDS011;1673;51.388;7.086;2023-05-23T08:09:54;20.92;;;10.38;;
3321;SDS011;1673;51.388;7.086;2023-05-23T08:12:24;24.67;;;12.40;;
3321;SDS011;1673;51.388;7.086;2023-05-23T08:15:05;26.27;;;13.10;;
3321;SDS011;1673;51.388;7.086;2023-05-23T08:17:44;24.45;;;11.93;;
3321;SDS011;1673;51.388;7.086;2023-05-23T08:20:16;27.45;;;12.45;;
3321;SDS011;1673;51.388;7.086;2023-05-23T08:22:46;22.73;;;10.88;;
3321;SDS011;1673;51.388;7.086;2023-05-23T08:25:16;23.75;;;11.43;;
3321;SDS011;1673;51.388;7.086;2023-05-23T08:27:46;20.15;;;10.38;;
3321;SDS011;1673;51.388;7.086;2023-05-23T08:30:30;24.13;;;11.30;;
3321;SDS011;1673;51.388;7.086;2023-05-23T08:33:03;31.45;;;14.80;;
3321;SDS011;1673;51.388;7.086;2023-05-23T08:35:36;26.58;;;13.63;;
3321;SDS011;1673;51.388;7.086;2023-05-23T08:38:09;27.77;;;14.25;;
3321;SDS011;1673;51.388;7.086;2023-05-23T08:40:49;36.35;;;15.00;;
3321;SDS011;1673;51.388;7.086;2023-05-23T08:43:22;31.08;;;16.60;;
3321;SDS011;1673;51.388;7.086;2023-05-23T08:45:52;29.85;;;16.20;;
3321;SDS011;1673;51.388;7.086;2023-05-23T08:48:26;28.30;;;18.70;;
3321;SDS011;1673;51.388;7.086;2023-05-23T08:50:56;34.38;;;17.60;;
3321;SDS011;1673;51.388;7.086;2023-05-23T08:53:27;36.40;;;18.13;;
3321;SDS011;1673;51.388;7.086;2023-05-23T08:56:03;28.73;;;15.60;;
3321;SDS011;1673;51.388;7.086;2023-05-23T08:58:40;32.67;;;16.20;;
3321;SDS011;1673;51.388;7.086;2023-05-23T09:01:11;30.08;;;16.38;;
3321;SDS011;1673;51.388;7.086;2023-05-23T09:03:46;30.93;;;16.73;;
3321;SDS011;1673;51.388;7.086;2023-05-23T09:06:26;21.92;;;13.50;;
3321;SDS011;1673;51.388;7.086;2023-05-23T09:08:55;28.48;;;14.30;;
3321;SDS011;1673;51.388;7.086;2023-05-23T09:11:25;26.23;;;14.30;;
3321;SDS011;1673;51.388;7.086;2023-05-23T09:13:57;24.52;;;14.88;;
3321;SDS011;1673;51.388;7.086;2023-05-23T09:16:30;24.88;;;14.50;;
3321;SDS011;1673;51.388;7.086;2023-05-23T09:19:12;26.60;;;13.30;;
3321;SDS011;1673;51.388;7.086;2023-05-23T09:21:59;22.27;;;11.90;;
3321;SDS011;1673;51.388;7.086;2023-05-23T09:24:36;20.23;;;9.95;;
3321;SDS011;1673;51.388;7.086;2023-05-23T09:27:08;27.33;;;10.33;;
3321;SDS011;1673;51.388;7.086;2023-05-23T09:29:38;21.08;;;11.48;;
3321;SDS011;1673;51.388;7.086;2023-05-23T09:32:10;28.00;;;14.18;;
3321;SDS011;1673;51.388;7.086;2023-05-23T09:34:43;25.55;;;12.32;;
3321;SDS011;1673;51.388;7.086;2023-05-23T09:37:28;30.98;;;13.13;;
3321;SDS011;1673;51.388;7.086;2023-05-23T09:39:59;26.17;;;11.32;;
3321;SDS011;1673;51.388;7.086;2023-05-23T09:42:30;27.63;;;10.30;;
3321;SDS011;1673;51.388;7.086;2023-05-23T09:45:01;22.77;;;10.20;;
3321;SDS011;1673;51.388;7.086;2023-05-23T09:47:31;22.67;;;11.80;;
3321;SDS011;1673;51.388;7.086;2023-05-23T09:50:04;24.20;;;11.10;;
3321;SDS011;1673;51.388;7.086;2023-05-23T09:52:35;26.58;;;12.10;;
3321;SDS011;1673;51.388;7.086;2023-05-23T09:55:06;21.08;;;11.18;;
3321;SDS011;1673;51.388;7.086;2023-05-23T09:57:37;24.08;;;11.00;;
3321;SDS011;1673;51.388;7.086;2023-05-23T10:00:10;23.77;;;10.00;;
3321;SDS011;1673;51.388;7.086;2023-05-23T10:02:52;22.48;;;11.43;;
3321;SDS011;1673;51.388;7.086;2023-05-23T10:08:17;24.00;;;11.88;;
3321;SDS011;1673;51.388;7.086;2023-05-23T10:14:04;20.48;;;11.45;;
3321;SDS011;1673;51.388;7.086;2023-05-23T10:16:37;22.23;;;12.50;;
3321;SDS011;1673;51.388;7.086;2023-05-23T10:19:12;25.77;;;13.70;;
3321;SDS011;1673;51.388;7.086;2023-05-23T10:21:51;30.10;;;16.43;;
3321;SDS011;1673;51.388;7.086;2023-05-23T10:24:25;24.03;;;13.50;;
3321;SDS011;1673;51.388;7.086;2023-05-23T10:26:55;31.02;;;13.68;;
3321;SDS011;1673;51.388;7.086;2023-05-23T10:29:26;24.83;;;12.80;;
3321;SDS011;1673;51.388;7.086;2023-05-23T10:31:56;24.23;;;11.80;;
3321;SDS011;1673;51.388;7.086;2023-05-23T10:34:30;20.70;;;10.65;;
3321;SDS011;1673;51.388;7.086;2023-05-23T10:37:05;22.63;;;9.30;;
3321;SDS011;1673;51.388;7.086;2023-05-23T10:39:40;20.88;;;9.10;;
3321;SDS011;1673;51.388;7.086;2023-05-23T10:42:16;21.95;;;9.13;;
3321;SDS011;1673;51.388;7.086;2023-05-23T10:44:47;21.10;;;9.27;;
3321;SDS011;1673;51.388;7.086;2023-05-23T10:47:24;18.98;;;8.07;;
3321;SDS011;1673;51.388;7.086;2023-05-23T10:49:55;18.90;;;9.30;;
3321;SDS011;1673;51.388;7.086;2023-05-23T10:52:28;15.20;;;7.40;;
3321;SDS011;1673;51.388;7.086;2023-05-23T10:55:16;17.52;;;7.40;;
3321;SDS011;1673;51.388;7.086;2023-05-23T10:57:46;16.50;;;7.53;;
3321;SDS011;1673;51.388;7.086;2023-05-23T11:00:41;19.30;;;8.02;;
3321;SDS011;1673;51.388;7.086;2023-05-23T11:03:26;19.05;;;7.40;;
3321;SDS011;1673;51.388;7.086;2023-05-23T11:06:01;15.45;;;7.05;;
3321;SDS011;1673;51.388;7.086;2023-05-23T11:08:42;16.53;;;7.80;;
3321;SDS011;1673;51.388;7.086;2023-05-23T11:11:14;14.45;;;7.40;;
3321;SDS011;1673;51.388;7.086;2023-05-23T11:13:57;15.25;;;7.22;;
3321;SDS011;1673;51.388;7.086;2023-05-23T11:16:29;19.73;;;8.35;;
3321;SDS011;1673;51.388;7.086;2023-05-23T11:21:55;19.80;;;9.77;;
3321;SDS011;1673;51.388;7.086;2023-05-23T11:27:24;15.60;;;9.30;;
3321;SDS011;1673;51.388;7.086;2023-05-23T11:29:58;19.60;;;9.32;;
3321;SDS011;1673;51.388;7.086;2023-05-23T11:32:30;19.35;;;8.95;;
3321;SDS011;1673;51.388;7.086;2023-05-23T11:35:00;16.85;;;8.50;;
3321;SDS011;1673;51.388;7.086;2023-05-23T11:37:31;19.98;;;8.40;;
3321;SDS011;1673;51.388;7.086;2023-05-23T11:42:58;14.32;;;7.03;;
3321;SDS011;1673;51.388;7.086;2023-05-23T11:45:29;13.95;;;6.40;;
3321;SDS011;1673;51.388;7.086;2023-05-23T11:48:03;15.07;;;6.88;;
3321;SDS011;1673;51.388;7.086;2023-05-23T11:50:42;15.50;;;8.18;;
3321;SDS011;1673;51.388;7.086;2023-05-23T11:53:12;18.10;;;8.10;;
3321;SDS011;1673;51.388;7.086;2023-05-23T11:55:50;20.80;;;7.93;;
3321;SDS011;1673;51.388;7.086;2023-05-23T11:58:20;19.50;;;8.10;;
3321;SDS011;1673;51.388;7.086;2023-05-23T12:00:50;17.17;;;6.93;;
3321;SDS011;1673;51.388;7.086;2023-05-23T12:03:20;18.65;;;6.75;;
3321;SDS011;1673;51.388;7.086;2023-05-23T12:05:54;16.35;;;6.78;;
3321;SDS011;1673;51.388;7.086;2023-05-23T12:08:24;14.65;;;6.43;;
3321;SDS011;1673;51.388;7.086;2023-05-23T12:10:58;19.70;;;7.47;;
3321;SDS011;1673;51.388;7.086;2023-05-23T12:13:28;17.02;;;6.07;;
3321;SDS011;1673;51.388;7.086;2023-05-23T12:15:58;15.10;;;6.30;;
3321;SDS011;1673;51.388;7.086;2023-05-23T12:18:31;19.60;;;6.28;;
3321;SDS011;1673;51.388;7.086;2023-05-23T12:21:01;13.77;;;5.20;;
3321;SDS011;1673;51.388;7.086;2023-05-23T12:23:34;12.25;;;5.40;;
3321;SDS011;1673;51.388;7.086;2023-05-23T12:26:06;16.98;;;5.95;;
3321;SDS011;1673;51.388;7.086;2023-05-23T12:28:36;15.27;;;6.60;;
3321;SDS011;1673;51.388;7.086;2023-05-23T12:31:08;16.33;;;6.00;;
3321;SDS011;1673;51.388;7.086;2023-05-23T12:33:39;14.95;;;6.07;;
3321;SDS011;1673;51.388;7.086;2023-05-23T12:36:09;20.27;;;6.20;;
3321;SDS011;1673;51.388;7.086;2023-05-23T12:38:40;13.43;;;4.90;;
3321;SDS011;1673;51.388;7.086;2023-05-23T12:41:14;18.13;;;5.20;;
3321;SDS011;1673;51.388;7.086;2023-05-23T12:43:49;13.85;;;6.47;;
3321;SDS011;1673;51.388;7.086;2023-05-23T12:46:20;14.95;;;6.55;;
3321;SDS011;1673;51.388;7.086;2023-05-23T12:48:50;14.00;;;6.40;;
3321;SDS011;1673;51.388;7.086;2023-05-23T12:51:21;18.10;;;6.20;;
3321;SDS011;1673;51.388;7.086;2023-05-23T12:53:50;12.98;;;6.10;;
3321;SDS011;1673;51.388;7.086;2023-05-23T12:56:23;16.05;;;7.20;;
3321;SDS011;1673;51.388;7.086;2023-05-23T12:58:53;13.15;;;5.00;;
3321;SDS011;1673;51.388;7.086;2023-05-23T13:01:23;15.73;;;6.37;;
3321;SDS011;1673;51.388;7.086;2023-05-23T13:03:53;13.65;;;5.57;;
3321;SDS011;1673;51.388;7.086;2023-05-23T13:06:22;17.03;;;6.00;;
3321;SDS011;1673;51.388;7.086;2023-05-23T13:08:52;18.70;;;6.95;;
3321;SDS011;1673;51.388;7.086;2023-05-23T13:11:25;15.02;;;6.20;;
3321;SDS011;1673;51.388;7.086;2023-05-23T13:13:55;20.17;;;6.68;;
3321;SDS011;1673;51.388;7.086;2023-05-23T13:16:25;15.90;;;5.40;;
3321;SDS011;1673;51.388;7.086;2023-05-23T13:18:55;16.15;;;5.82;;
3321;SDS011;1673;51.388;7.086;2023-05-23T13:21:24;12.70;;;4.75;;
3321;SDS011;1673;51.388;7.086;2023-05-23T13:23:54;17.90;;;4.88;;
3321;SDS011;1673;51.388;7.086;2023-05-23T13:26:27;16.00;;;5.13;;
3321;SDS011;1673;51.388;7.086;2023-05-23T13:28:57;16.85;;;5.63;;
3321;SDS011;1673;51.388;7.086;2023-05-23T13:31:26;16.85;;;5.15;;
3321;SDS011;1673;51.388;7.086;2023-05-23T13:33:56;15.65;;;5.20;;
3321;SDS011;1673;51.388;7.086;2023-05-23T13:36:26;14.40;;;4.97;;
3321;SDS011;1673;51.388;7.086;2023-05-23T13:38:57;17.27;;;5.37;;
3321;SDS011;1673;51.388;7.086;2023-05-23T13:41:29;15.10;;;5.60;;
3321;SDS011;1673;51.388;7.086;2023-05-23T13:43:59;17.27;;;5.47;;
3321;SDS011;1673;51.388;7.086;2023-05-23T13:46:28;15.80;;;5.50;;
3321;SDS011;1673;51.388;7.086;2023-05-23T13:48:58;12.35;;;5.20;;
3321;SDS011;1673;51.388;7.086;2023-05-23T13:51:28;17.35;;;5.40;;
3321;SDS011;1673;51.388;7.086;2023-05-23T13:53:58;13.77;;;4.93;;
3321;SDS011;1673;51.388;7.086;2023-05-23T13:56:31;16.25;;;5.40;;
3321;SDS011;1673;51.388;7.086;2023-05-23T13:59:02;11.35;;;4.85;;
3321;SDS011;1673;51.388;7.086;2023-05-23T14:01:31;11.40;;;4.70;;
3321;SDS011;1673;51.388;7.086;2023-05-23T14:04:01;13.45;;;4.90;;
3321;SDS011;1673;51.388;7.086;2023-05-23T14:06:32;12.88;;;4.55;;
3321;SDS011;1673;51.388;7.086;2023-05-23T14:09:02;13.07;;;4.55;;
3321;SDS011;1673;51.388;7.086;2023-05-23T14:11:34;19.57;;;4.97;;
3321;SDS011;1673;51.388;7.086;2023-05-23T14:14:04;16.83;;;4.70;;
3321;SDS011;1673;51.388;7.086;2023-05-23T14:16:34;13.98;;;4.85;;
3321;SDS011;1673;51.388;7.086;2023-05-23T14:19:04;15.73;;;4.82;;
3321;SDS011;1673;51.388;7.086;2023-05-23T14:21:34;23.00;;;5.40;;
3321;SDS011;1673;51.388;7.086;2023-05-23T14:24:04;17.27;;;5.15;;
3321;SDS011;1673;51.388;7.086;2023-05-23T14:26:37;14.70;;;4.75;;
3321;SDS011;1673;51.388;7.086;2023-05-23T14:29:06;18.98;;;4.63;;
3321;SDS011;1673;51.388;7.086;2023-05-23T14:31:36;15.77;;;4.55;;
3321;SDS011;1673;51.388;7.086;2023-05-23T14:34:06;14.98;;;4.78;;
3321;SDS011;1673;51.388;7.086;2023-05-23T14:36:36;16.10;;;5.10;;
3321;SDS011;1673;51.388;7.086;2023-05-23T14:39:06;17.30;;;4.18;;
3321;SDS011;1673;51.388;7.086;2023-05-23T14:41:39;15.25;;;5.18;;
3321;SDS011;1673;51.388;7.086;2023-05-23T14:44:09;15.30;;;4.30;;
3321;SDS011;1673;51.388;7.086;2023-05-23T14:46:39;16.65;;;4.43;;
3321;SDS011;1673;51.388;7.086;2023-05-23T14:49:13;17.63;;;5.20;;
3321;SDS011;1673;51.388;7.086;2023-05-23T14:51:43;14.95;;;4.57;;
3321;SDS011;1673;51.388;7.086;2023-05-23T14:54:17;13.55;;;4.25;;
3321;SDS011;1673;51.388;7.086;2023-05-23T14:56:50;9.70;;;3.92;;
3321;SDS011;1673;51.388;7.086;2023-05-23T14:59:19;15.50;;;4.60;;
3321;SDS011;1673;51.388;7.086;2023-05-23T15:01:50;17.63;;;4.78;;
3321;SDS011;1673;51.388;7.086;2023-05-23T15:04:20;15.25;;;4.50;;
3321;SDS011;1673;51.388;7.086;2023-05-23T15:06:50;13.02;;;4.50;;
3321;SDS011;1673;51.388;7.086;2023-05-23T15:09:19;19.08;;;4.65;;
3321;SDS011;1673;51.388;7.086;2023-05-23T15:11:52;19.70;;;5.00;;
3321;SDS011;1673;51.388;7.086;2023-05-23T15:14:22;13.52;;;4.72;;
3321;SDS011;1673;51.388;7.086;2023-05-23T15:16:55;16.45;;;5.00;;
3321;SDS011;1673;51.388;7.086;2023-05-23T15:19:33;15.57;;;4.30;;
3321;SDS011;1673;51.388;7.086;2023-05-23T15:22:04;12.00;;;4.53;;
3321;SDS011;1673;51.388;7.086;2023-05-23T15:24:47;12.57;;;3.90;;
3321;SDS011;1673;51.388;7.086;2023-05-23T15:27:20;16.90;;;4.43;;
3321;SDS011;1673;51.388;7.086;2023-05-23T15:29:50;17.80;;;4.72;;
3321;SDS011;1673;51.388;7.086;2023-05-23T15:32:20;17.35;;;4.75;;
3321;SDS011;1673;51.388;7.086;2023-05-23T15:34:50;14.45;;;4.93;;
3321;SDS011;1673;51.388;7.086;2023-05-23T15:37:20;13.30;;;4.00;;
3321;SDS011;1673;51.388;7.086;2023-05-23T15:39:51;13.00;;;4.32;;
3321;SDS011;1673;51.388;7.086;2023-05-23T15:42:23;12.65;;;3.90;;